Wetterdaten: Sonntag, 14.12.2014
Datum Zeit Temp. A. Feuchte A. Luftdruck Regen Wind Richtung Richtung Sonnenschein ET UV Solar Taupunkt Windchill Windben Empfang
14.12.2014 00:00 0,4 C 81 % 1016,4 hPa 0,0 l/m 0,0 km/h (0 Bft) SW 214 0 min 0,000 mm 0,0 UV-I 0 W/m -2,5 C 0,4 C 0,0 km/h (0 Bft) 0,00 %
14.12.2014 00:15 0,4 C 82 % 1016,3 hPa 0,0 l/m 0,0 km/h (0 Bft) SW 217 0 min 0,000 mm 0,0 UV-I 0 W/m -2,3 C 0,4 C 0,0 km/h (0 Bft) 0,00 %
14.12.2014 00:30 0,3 C 82 % 1016,2 hPa 0,0 l/m 0,0 km/h (0 Bft) SW 228 0 min 0,000 mm 0,0 UV-I 0 W/m -2,4 C 0,3 C 0,0 km/h (0 Bft) 0,00 %
14.12.2014 00:45 0,3 C 82 % 1016,2 hPa 0,0 l/m 0,0 km/h (0 Bft) S-SW 203 0 min 0,000 mm 0,0 UV-I 0 W/m -2,4 C 0,3 C 0,0 km/h (0 Bft) 0,00 %
14.12.2014 01:00 0,3 C 82 % 1016,2 hPa 0,0 l/m 0,0 km/h (0 Bft) SW 223 0 min 0,000 mm 0,0 UV-I 0 W/m -2,4 C 0,3 C 0,0 km/h (0 Bft) 0,00 %
14.12.2014 01:15 0,1 C 82 % 1016,2 hPa 0,0 l/m 0,0 km/h (0 Bft) SW 228 0 min 0,000 mm 0,0 UV-I 0 W/m -2,6 C 0,1 C 0,0 km/h (0 Bft) 0,00 %
14.12.2014 01:30 0,0 C 82 % 1016,4 hPa 0,0 l/m 0,0 km/h (0 Bft) S 180 0 min 0,000 mm 0,0 UV-I 0 W/m -2,7 C 0,0 C 0,0 km/h (0 Bft) 0,00 %
14.12.2014 01:45 -0,1 C 82 % 1016,3 hPa 0,0 l/m 0,0 km/h (0 Bft) S-SW 197 0 min 0,000 mm 0,0 UV-I 0 W/m -2,8 C -0,1 C 0,0 km/h (0 Bft) 0,00 %
14.12.2014 02:00 0,0 C 82 % 1016,3 hPa 0,0 l/m 0,0 km/h (0 Bft) S 172 0 min 0,000 mm 0,0 UV-I 0 W/m -2,7 C 0,0 C 0,0 km/h (0 Bft) 0,00 %
14.12.2014 02:15 0,0 C 82 % 1016,6 hPa 0,0 l/m 0,0 km/h (0 Bft) SW 217 0 min 0,000 mm 0,0 UV-I 0 W/m -2,7 C 0,0 C 0,0 km/h (0 Bft) 0,00 %
14.12.2014 02:30 0,0 C 82 % 1016,5 hPa 0,0 l/m 0,0 km/h (0 Bft) W-SW 252 0 min 0,000 mm 0,0 UV-I 0 W/m -2,7 C 0,0 C 0,0 km/h (0 Bft) 0,00 %
14.12.2014 02:45 0,0 C 82 % 1016,7 hPa 0,0 l/m 0,0 km/h (0 Bft) SW 235 0 min 0,000 mm 0,0 UV-I 0 W/m -2,7 C 0,0 C 0,0 km/h (0 Bft) 0,00 %
14.12.2014 03:00 0,0 C 82 % 1016,6 hPa 0,0 l/m 0,0 km/h (0 Bft) W-SW 240 0 min 0,000 mm 0,0 UV-I 0 W/m -2,7 C 0,0 C 0,0 km/h (0 Bft) 0,00 %
14.12.2014 03:15 0,1 C 82 % 1017,1 hPa 0,0 l/m 0,0 km/h (0 Bft) W-SW 250 0 min 0,000 mm 0,0 UV-I 0 W/m -2,6 C 0,1 C 0,0 km/h (0 Bft) 0,00 %
14.12.2014 03:30 0,1 C 82 % 1017,0 hPa 0,0 l/m 0,0 km/h (0 Bft) S 191 0 min 0,000 mm 0,0 UV-I 0 W/m -2,6 C 0,1 C 0,0 km/h (0 Bft) 0,00 %
14.12.2014 03:45 0,3 C 81 % 1016,9 hPa 0,0 l/m 0,0 km/h (0 Bft) S 189 0 min 0,000 mm 0,0 UV-I 0 W/m -2,6 C 0,3 C 0,0 km/h (0 Bft) 0,00 %
14.12.2014 04:00 0,5 C 82 % 1017,1 hPa 0,0 l/m 0,0 km/h (0 Bft) S 176 0 min 0,000 mm 0,0 UV-I 0 W/m -2,2 C 0,5 C 0,0 km/h (0 Bft) 0,00 %
14.12.2014 04:15 0,4 C 82 % 1017,1 hPa 0,0 l/m 0,0 km/h (0 Bft) S 189 0 min 0,000 mm 0,0 UV-I 0 W/m -2,3 C 0,4 C 0,0 km/h (0 Bft) 0,00 %
14.12.2014 04:30 0,2 C 82 % 1016,8 hPa 0,0 l/m 0,0 km/h (0 Bft) S-SW 199 0 min 0,000 mm 0,0 UV-I 0 W/m -2,5 C 0,2 C 0,0 km/h (0 Bft) 0,00 %
14.12.2014 04:45 0,3 C 82 % 1017,1 hPa 0,0 l/m 0,0 km/h (0 Bft) SW 223 0 min 0,000 mm 0,0 UV-I 0 W/m -2,4 C 0,3 C 0,0 km/h (0 Bft) 0,00 %
14.12.2014 05:00 0,2 C 82 % 1017,0 hPa 0,0 l/m 0,0 km/h (0 Bft) SW 227 0 min 0,000 mm 0,0 UV-I 0 W/m -2,5 C 0,2 C 0,0 km/h (0 Bft) 0,00 %
14.12.2014 05:15 0,2 C 82 % 1017,1 hPa 0,0 l/m 0,0 km/h (0 Bft) SW 224 0 min 0,000 mm 0,0 UV-I 0 W/m -2,5 C 0,2 C 0,0 km/h (0 Bft) 0,00 %
14.12.2014 05:30 0,2 C 82 % 1017,2 hPa 0,0 l/m 0,0 km/h (0 Bft) S-SW 203 0 min 0,000 mm 0,0 UV-I 0 W/m -2,5 C 0,2 C 0,0 km/h (0 Bft) 0,00 %
14.12.2014 05:45 0,2 C 82 % 1017,4 hPa 0,0 l/m 0,0 km/h (0 Bft) SW 220 0 min 0,000 mm 0,0 UV-I 0 W/m -2,5 C 0,2 C 0,0 km/h (0 Bft) 0,00 %
14.12.2014 06:00 0,1 C 82 % 1017,5 hPa 0,0 l/m 0,0 km/h (0 Bft) S 180 0 min 0,000 mm 0,0 UV-I 0 W/m -2,6 C 0,1 C 0,0 km/h (0 Bft) 0,00 %
14.12.2014 06:15 0,3 C 83 % 1017,4 hPa 0,0 l/m 0,0 km/h (0 Bft) S-SW 192 0 min 0,000 mm 0,0 UV-I 0 W/m -2,2 C 0,3 C 0,0 km/h (0 Bft) 0,00 %
14.12.2014 06:30 0,4 C 82 % 1017,6 hPa 0,0 l/m 0,0 km/h (0 Bft) SW 232 0 min 0,000 mm 0,0 UV-I 0 W/m -2,3 C 0,4 C 0,0 km/h (0 Bft) 0,00 %
14.12.2014 06:45 0,4 C 82 % 1017,7 hPa 0,0 l/m 0,0 km/h (0 Bft) S 175 0 min 0,000 mm 0,0 UV-I 0 W/m -2,3 C 0,4 C 0,0 km/h (0 Bft) 0,00 %
14.12.2014 07:00 0,4 C 82 % 1017,6 hPa 0,0 l/m 0,0 km/h (0 Bft) S 175 0 min 0,000 mm 0,0 UV-I 0 W/m -2,3 C 0,4 C 0,0 km/h (0 Bft) 0,00 %
14.12.2014 07:15 0,4 C 82 % 1018,1 hPa 0,0 l/m 0,0 km/h (0 Bft) S 175 0 min 0,000 mm 0,0 UV-I 0 W/m -2,3 C 0,4 C 0,0 km/h (0 Bft) 0,00 %
14.12.2014 07:30 0,4 C 82 % 1018,0 hPa 0,0 l/m 0,0 km/h (0 Bft) S 175 0 min 0,000 mm 0,0 UV-I 0 W/m -2,3 C 0,4 C 0,0 km/h (0 Bft) 0,00 %
14.12.2014 07:45 0,4 C 82 % 1018,1 hPa 0,0 l/m 0,0 km/h (0 Bft) S 175 0 min 0,000 mm 0,0 UV-I 0 W/m -2,3 C 0,4 C 0,0 km/h (0 Bft) 0,00 %
14.12.2014 08:00 0,4 C 82 % 1018,5 hPa 0,0 l/m 0,0 km/h (0 Bft) S 175 0 min 0,000 mm 0,0 UV-I 0 W/m -2,3 C 0,4 C 0,0 km/h (0 Bft) 0,00 %
14.12.2014 08:15 0,4 C 82 % 1018,9 hPa 0,0 l/m 0,0 km/h (0 Bft) S 175 0 min 0,000 mm 0,0 UV-I 0 W/m -2,3 C 0,4 C 0,0 km/h (0 Bft) 0,00 %
14.12.2014 08:30 0,4 C 82 % 1018,9 hPa 0,0 l/m 0,0 km/h (0 Bft) S 175 0 min 0,000 mm 0,0 UV-I 10 W/m -2,3 C 0,4 C 0,0 km/h (0 Bft) 0,00 %
14.12.2014 08:45 0,4 C 82 % 1018,7 hPa 0,0 l/m 0,0 km/h (0 Bft) S 175 0 min 0,000 mm 0,0 UV-I 20 W/m -2,3 C 0,4 C 0,0 km/h (0 Bft) 0,00 %
14.12.2014 09:00 1,1 C 82 % 1018,8 hPa 0,0 l/m 0,0 km/h (0 Bft) S 175 0 min 0,000 mm 0,0 UV-I 30 W/m -1,6 C 1,1 C 0,0 km/h (0 Bft) 0,00 %
14.12.2014 09:15 1,5 C 82 % 1018,9 hPa 0,0 l/m 0,0 km/h (0 Bft) S 175 0 min 0,000 mm 0,0 UV-I 53 W/m -1,2 C 1,5 C 0,0 km/h (0 Bft) 0,00 %
14.12.2014 09:30 2,1 C 79 % 1018,7 hPa 0,0 l/m 0,0 km/h (0 Bft) SW 231 0 min 0,000 mm 0,0 UV-I 66 W/m -1,2 C 2,1 C 0,0 km/h (0 Bft) 0,00 %
14.12.2014 09:45 2,6 C 82 % 1018,9 hPa 0,0 l/m 0,0 km/h (0 Bft) S-SW 196 0 min 0,000 mm 1,0 UV-I 76 W/m -0,2 C 2,6 C 0,0 km/h (0 Bft) 0,00 %
14.12.2014 10:00 2,9 C 82 % 1019,1 hPa 0,0 l/m 0,0 km/h (0 Bft) S-SW 201 0 min 0,000 mm 1,0 UV-I 61 W/m 0,1 C 2,9 C 0,0 km/h (0 Bft) 0,00 %
14.12.2014 10:15 3,1 C 82 % 1018,8 hPa 0,0 l/m 0,0 km/h (0 Bft) N-NW 344 0 min 0,000 mm 1,0 UV-I 105 W/m 0,3 C 3,1 C 0,0 km/h (0 Bft) 0,00 %
14.12.2014 10:30 3,7 C 78 % 1018,7 hPa 0,0 l/m 0,0 km/h (0 Bft) S 175 0 min 0,000 mm 1,0 UV-I 110 W/m 0,2 C 3,7 C 0,0 km/h (0 Bft) 0,00 %
14.12.2014 10:45 3,4 C 79 % 1018,7 hPa 0,0 l/m 0,0 km/h (0 Bft) S 172 0 min 0,000 mm 1,0 UV-I 67 W/m 0,1 C 3,4 C 0,0 km/h (0 Bft) 0,00 %
14.12.2014 11:00 4,0 C 79 % 1018,5 hPa 0,0 l/m 0,0 km/h (0 Bft) S 169 0 min 0,000 mm 1,0 UV-I 89 W/m 0,7 C 4,0 C 0,0 km/h (0 Bft) 0,00 %
14.12.2014 11:15 4,6 C 77 % 1018,3 hPa 0,0 l/m 0,0 km/h (0 Bft) SO 143 0 min 0,000 mm 1,0 UV-I 106 W/m 0,9 C 4,6 C 0,0 km/h (0 Bft) 0,00 %
14.12.2014 11:30 4,6 C 76 % 1018,1 hPa 0,0 l/m 0,0 km/h (0 Bft) O-SO 115 0 min 0,000 mm 1,0 UV-I 77 W/m 0,7 C 4,6 C 0,0 km/h (0 Bft) 0,00 %
14.12.2014 11:45 4,9 C 76 % 1017,9 hPa 0,0 l/m 0,0 km/h (0 Bft) SO 127 0 min 0,000 mm 1,0 UV-I 74 W/m 1,0 C 4,9 C 0,0 km/h (0 Bft) 0,00 %
14.12.2014 12:00 5,8 C 71 % 1017,8 hPa 0,0 l/m 0,0 km/h (0 Bft) S-SW 199 0 min 0,000 mm 1,0 UV-I 69 W/m 1,0 C 5,8 C 0,0 km/h (0 Bft) 0,00 %
14.12.2014 12:15 6,4 C 69 % 1017,6 hPa 0,0 l/m 0,0 km/h (0 Bft) W-SW 251 0 min 0,000 mm 1,0 UV-I 67 W/m 1,1 C 6,4 C 0,0 km/h (0 Bft) 0,00 %
14.12.2014 12:30 6,8 C 68 % 1017,4 hPa 0,0 l/m 0,0 km/h (0 Bft) S-SW 197 0 min 0,000 mm 1,0 UV-I 70 W/m 1,3 C 6,8 C 0,0 km/h (0 Bft) 0,00 %
14.12.2014 12:45 7,2 C 67 % 1017,2 hPa 0,0 l/m 0,0 km/h (0 Bft) S 177 0 min 0,000 mm 1,0 UV-I 67 W/m 1,5 C 7,2 C 0,0 km/h (0 Bft) 0,00 %
14.12.2014 13:00 7,3 C 65 % 1016,9 hPa 0,0 l/m 0,4 km/h (0 Bft) S-SO 165 0 min 0,000 mm 1,0 UV-I 70 W/m 1,2 C 7,3 C 4,0 km/h (1 Bft) 0,00 %
14.12.2014 13:15 7,5 C 64 % 1016,8 hPa 0,0 l/m 0,7 km/h (0 Bft) O-SO 108 0 min 0,000 mm 1,0 UV-I 83 W/m 1,1 C 7,5 C 4,0 km/h (1 Bft) 0,00 %
14.12.2014 13:30 7,6 C 65 % 1016,7 hPa 0,0 l/m 0,0 km/h (0 Bft) SO 133 0 min 0,000 mm 1,0 UV-I 77 W/m 1,5 C 7,6 C 0,0 km/h (0 Bft) 0,00 %
14.12.2014 13:45 7,4 C 65 % 1016,7 hPa 0,0 l/m 3,2 km/h (1 Bft) O 101 0 min 0,000 mm 1,0 UV-I 82 W/m 1,3 C 7,4 C 4,0 km/h (1 Bft) 0,00 %
14.12.2014 14:00 7,4 C 68 % 1016,9 hPa 0,0 l/m 1,4 km/h (1 Bft) O-NO 59 0 min 0,000 mm 1,0 UV-I 80 W/m 1,9 C 7,4 C 4,0 km/h (1 Bft) 0,00 %
14.12.2014 14:15 7,2 C 68 % 1016,9 hPa 0,0 l/m 0,7 km/h (0 Bft) O-SO 102 0 min 0,000 mm 1,0 UV-I 71 W/m 1,7 C 7,2 C 4,0 km/h (1 Bft) 0,00 %
14.12.2014 14:30 7,1 C 69 % 1016,9 hPa 0,0 l/m 0,0 km/h (0 Bft) O-NO 64 0 min 0,000 mm 1,0 UV-I 64 W/m 1,8 C 7,1 C 0,0 km/h (0 Bft) 0,00 %
14.12.2014 14:45 6,7 C 71 % 1017,0 hPa 0,0 l/m 0,0 km/h (0 Bft) SO 141 0 min 0,000 mm 1,0 UV-I 57 W/m 1,8 C 6,7 C 0,0 km/h (0 Bft) 0,00 %
14.12.2014 15:00 6,2 C 71 % 1017,3 hPa 0,0 l/m 1,4 km/h (1 Bft) O-SO 110 0 min 0,000 mm 0,0 UV-I 42 W/m 1,3 C 6,2 C 4,0 km/h (1 Bft) 0,00 %
14.12.2014 15:15 5,7 C 72 % 1017,2 hPa 0,0 l/m 2,2 km/h (1 Bft) O-SO 113 0 min 0,000 mm 0,0 UV-I 28 W/m 1,1 C 5,7 C 4,0 km/h (1 Bft) 0,00 %
14.12.2014 15:30 5,5 C 73 % 1017,5 hPa 0,0 l/m 0,0 km/h (0 Bft) SO 131 0 min 0,000 mm 0,0 UV-I 21 W/m 1,1 C 5,5 C 0,0 km/h (0 Bft) 0,00 %
14.12.2014 15:45 4,9 C 72 % 1017,7 hPa 0,0 l/m 0,0 km/h (0 Bft) SO 135 0 min 0,000 mm 0,0 UV-I 9 W/m 0,3 C 4,9 C 0,0 km/h (0 Bft) 0,00 %
14.12.2014 16:00 4,6 C 74 % 1018,0 hPa 0,0 l/m 0,0 km/h (0 Bft) S 181 0 min 0,000 mm 0,0 UV-I 0 W/m 0,4 C 4,6 C 0,0 km/h (0 Bft) 0,00 %
14.12.2014 16:15 4,1 C 75 % 1017,9 hPa 0,0 l/m 0,0 km/h (0 Bft) S 182 0 min 0,000 mm 0,0 UV-I 0 W/m 0,1 C 4,1 C 0,0 km/h (0 Bft) 0,00 %
14.12.2014 16:30 3,6 C 74 % 1018,2 hPa 0,0 l/m 0,0 km/h (0 Bft) S 189 0 min 0,000 mm 0,0 UV-I 0 W/m -0,6 C 3,6 C 0,0 km/h (0 Bft) 0,00 %
14.12.2014 16:45 3,4 C 74 % 1018,1 hPa 0,0 l/m 0,0 km/h (0 Bft) S 179 0 min 0,000 mm 0,0 UV-I 0 W/m -0,8 C 3,4 C 0,0 km/h (0 Bft) 0,00 %
14.12.2014 17:00 3,6 C 72 % 1018,1 hPa 0,0 l/m 0,0 km/h (0 Bft) S 169 0 min 0,000 mm 0,0 UV-I 0 W/m -1,0 C 3,6 C 0,0 km/h (0 Bft) 0,00 %
14.12.2014 17:15 3,2 C 75 % 1018,1 hPa 0,0 l/m 0,0 km/h (0 Bft) W-SW 253 0 min 0,000 mm 0,0 UV-I 0 W/m -0,8 C 3,2 C 0,0 km/h (0 Bft) 0,00 %
14.12.2014 17:30 2,8 C 77 % 1018,2 hPa 0,0 l/m 0,0 km/h (0 Bft) S-SW 211 0 min 0,000 mm 0,0 UV-I 0 W/m -0,8 C 2,8 C 0,0 km/h (0 Bft) 0,00 %
14.12.2014 17:45 2,6 C 79 % 1018,5 hPa 0,0 l/m 0,0 km/h (0 Bft) S 187 0 min 0,000 mm 0,0 UV-I 0 W/m -0,7 C 2,6 C 0,0 km/h (0 Bft) 0,00 %
14.12.2014 18:00 2,5 C 79 % 1018,4 hPa 0,0 l/m 0,0 km/h (0 Bft) N-NW 329 0 min 0,000 mm 0,0 UV-I 0 W/m -0,8 C 2,5 C 0,0 km/h (0 Bft) 0,00 %
14.12.2014 18:15 2,3 C 74 % 1018,2 hPa 0,0 l/m 0,0 km/h (0 Bft) S 179 0 min 0,000 mm 0,0 UV-I 0 W/m -1,8 C 2,3 C 0,0 km/h (0 Bft) 0,00 %
14.12.2014 18:30 2,0 C 75 % 1018,4 hPa 0,0 l/m 0,0 km/h (0 Bft) SW 226 0 min 0,000 mm 0,0 UV-I 0 W/m -2,0 C 2,0 C 0,0 km/h (0 Bft) 0,00 %
14.12.2014 18:45 1,4 C 78 % 1018,7 hPa 0,0 l/m 0,0 km/h (0 Bft) S-SW 211 0 min 0,000 mm 0,0 UV-I 0 W/m -2,0 C 1,4 C 0,0 km/h (0 Bft) 0,00 %
14.12.2014 19:00 1,1 C 79 % 1019,0 hPa 0,0 l/m 0,0 km/h (0 Bft) SW 223 0 min 0,000 mm 0,0 UV-I 0 W/m -2,1 C 1,1 C 0,0 km/h (0 Bft) 0,00 %
14.12.2014 19:15 1,3 C 79 % 1019,1 hPa 0,0 l/m 0,0 km/h (0 Bft) SW 217 0 min 0,000 mm 0,0 UV-I 0 W/m -1,9 C 1,3 C 0,0 km/h (0 Bft) 0,00 %
14.12.2014 19:30 1,3 C 79 % 1019,1 hPa 0,0 l/m 0,0 km/h (0 Bft) SW 216 0 min 0,000 mm 0,0 UV-I 0 W/m -1,9 C 1,3 C 0,0 km/h (0 Bft) 0,00 %
14.12.2014 19:45 1,6 C 78 % 1018,8 hPa 0,0 l/m 0,0 km/h (0 Bft) SW 225 0 min 0,000 mm 0,0 UV-I 0 W/m -1,8 C 1,6 C 0,0 km/h (0 Bft) 0,00 %
14.12.2014 20:00 0,9 C 78 % 1018,9 hPa 0,0 l/m 0,0 km/h (0 Bft) SW 223 0 min 0,000 mm 0,0 UV-I 0 W/m -2,5 C 0,9 C 0,0 km/h (0 Bft) 0,00 %
14.12.2014 20:15 0,8 C 80 % 1018,8 hPa 0,0 l/m 0,0 km/h (0 Bft) SW 222 0 min 0,000 mm 0,0 UV-I 0 W/m -2,2 C 0,8 C 0,0 km/h (0 Bft) 0,00 %
14.12.2014 20:30 0,9 C 80 % 1018,7 hPa 0,0 l/m 0,0 km/h (0 Bft) O-SO 120 0 min 0,000 mm 0,0 UV-I 0 W/m -2,2 C 0,9 C 0,0 km/h (0 Bft) 0,00 %
14.12.2014 20:45 0,7 C 81 % 1019,0 hPa 0,0 l/m 0,0 km/h (0 Bft) W-SW 256 0 min 0,000 mm 0,0 UV-I 0 W/m -2,2 C 0,7 C 0,0 km/h (0 Bft) 0,00 %
14.12.2014 21:00 0,5 C 80 % 1018,6 hPa 0,0 l/m 0,0 km/h (0 Bft) O-SO 105 0 min 0,000 mm 0,0 UV-I 0 W/m -2,5 C 0,5 C 0,0 km/h (0 Bft) 0,00 %
14.12.2014 21:15 0,9 C 81 % 1019,0 hPa 0,0 l/m 0,0 km/h (0 Bft) S-SW 211 0 min 0,000 mm 0,0 UV-I 0 W/m -2,0 C 0,9 C 0,0 km/h (0 Bft) 0,00 %
14.12.2014 21:30 0,8 C 81 % 1019,0 hPa 0,0 l/m 0,0 km/h (0 Bft) SW 223 0 min 0,000 mm 0,0 UV-I 0 W/m -2,1 C 0,8 C 0,0 km/h (0 Bft) 0,00 %
14.12.2014 21:45 0,9 C 80 % 1019,2 hPa 0,0 l/m 0,0 km/h (0 Bft) S-SW 212 0 min 0,000 mm 0,0 UV-I 0 W/m -2,2 C 0,9 C 0,0 km/h (0 Bft) 0,00 %
14.12.2014 22:00 0,7 C 80 % 1019,5 hPa 0,0 l/m 0,0 km/h (0 Bft) SW 214 0 min 0,000 mm 0,0 UV-I 0 W/m -2,3 C 0,7 C 0,0 km/h (0 Bft) 0,00 %
14.12.2014 22:15 0,8 C 81 % 1019,1 hPa 0,0 l/m 0,0 km/h (0 Bft) SW 224 0 min 0,000 mm 0,0 UV-I 0 W/m -2,1 C 0,8 C 0,0 km/h (0 Bft) 0,00 %
14.12.2014 22:30 1,2 C 81 % 1018,8 hPa 0,0 l/m 0,0 km/h (0 Bft) O-SO 105 0 min 0,000 mm 0,0 UV-I 0 W/m -1,7 C 1,2 C 0,0 km/h (0 Bft) 0,00 %
14.12.2014 22:45 1,3 C 81 % 1019,2 hPa 0,0 l/m 0,0 km/h (0 Bft) S-SW 199 0 min 0,000 mm 0,0 UV-I 0 W/m -1,6 C 1,3 C 0,0 km/h (0 Bft) 0,00 %
14.12.2014 23:00 1,2 C 81 % 1019,1 hPa 0,0 l/m 0,0 km/h (0 Bft) S-SW 204 0 min 0,000 mm 0,0 UV-I 0 W/m -1,7 C 1,2 C 0,0 km/h (0 Bft) 0,00 %
14.12.2014 23:15 1,1 C 81 % 1019,2 hPa 0,0 l/m 0,0 km/h (0 Bft) SW 220 0 min 0,000 mm 0,0 UV-I 0 W/m -1,8 C 1,1 C 0,0 km/h (0 Bft) 0,00 %
14.12.2014 23:30 1,0 C 81 % 1019,2 hPa 0,0 l/m 0,0 km/h (0 Bft) SW 224 0 min 0,000 mm 0,0 UV-I 0 W/m -1,9 C 1,0 C 0,0 km/h (0 Bft) 0,00 %
14.12.2014 23:45 1,1 C 81 % 1019,3 hPa 0,0 l/m 0,0 km/h (0 Bft) S 174 0 min 0,000 mm 0,0 UV-I 0 W/m -1,8 C 1,1 C 0,0 km/h (0 Bft) 0,00 %
_ Min-Zeit 01:45 13:15 00:30 - 00:00 - - - - - - 01:45 01:45 00:00 00:00
Minimum _ -0,1 C 64 % 1016,2 hPa - 0,0 km/h (0 Bft) - - - - - - -2,8 C -0,1 C 0,0 km/h (0 Bft) 0,00 %
_ Max-Zeit 13:30 06:15 22:00 00:00 13:45 - - 00:00 00:00 09:45 10:30 14:00 13:30 13:00 00:00
Maximum _ 7,6 C 83 % 1019,5 hPa 0,0 l/m 3,2 km/h
O (1 Bft)
- - 0 min 0,000 mm 1,0 UV-I 110 W/m 1,9 C 7,6 C 4,0 km/h
S-SO (1 Bft)
0,00 %
Durchschnitt _ 2,2 C 78 % 1017,9 hPa #0,0 l/m 0,1 km/h (0 Bft) O-SO - #0 min. #0,000 mm 1,0 UV-I 63 W/m -1,2 C 2,2 C 0,3 km/h (0 Bft) 0,00 %